TimeEDT,TemperatureF,Dew PointF,Humidity,Sea Level PressureIn,VisibilityMPH,Wind Direction,Wind SpeedMPH,Gust SpeedMPH,PrecipitationIn,Events,Conditions,WindDirDegrees,DateUTC
12:53 AM,62.1,60.1,93,30.01,0.8,NNE,3.5,-,N/A,,Overcast,20,2012-10-03 04:53:00
1:10 AM,62.6,60.8,94,30.00,0.5,Calm,Calm,-,N/A,Fog,Fog,0,2012-10-03 05:10:00
1:53 AM,62.1,61.0,96,30.02,0.5,Calm,Calm,-,N/A,Fog,Fog,0,2012-10-03 05:53:00
2:53 AM,62.1,61.0,96,30.01,0.5,Calm,Calm,-,N/A,Fog,Fog,0,2012-10-03 06:53:00
3:53 AM,62.1,61.0,96,30.02,0.8,Calm,Calm,-,N/A,,Mist,0,2012-10-03 07:53:00
4:18 AM,62.6,60.8,94,30.00,1.0,Calm,Calm,-,N/A,,Overcast,0,2012-10-03 08:18:00
4:28 AM,62.6,60.8,94,30.00,0.8,Calm,Calm,-,N/A,,Mist,0,2012-10-03 08:28:00
4:53 AM,62.1,61.0,96,30.02,0.5,Calm,Calm,-,N/A,Fog,Fog,0,2012-10-03 08:53:00
5:27 AM,62.6,60.8,94,30.02,1.2,Calm,Calm,-,N/A,,Overcast,0,2012-10-03 09:27:00
5:53 AM,62.1,61.0,96,30.04,1.0,Calm,Calm,-,N/A,,Overcast,0,2012-10-03 09:53:00
6:53 AM,62.1,61.0,96,30.06,1.5,Calm,Calm,-,N/A,,Overcast,0,2012-10-03 10:53:00
7:18 AM,62.6,62.6,100,30.05,0.8,Calm,Calm,-,N/A,,Overcast,0,2012-10-03 11:18:00
7:32 AM,62.6,62.6,100,30.05,1.0,Calm,Calm,-,N/A,,Overcast,0,2012-10-03 11:32:00
7:53 AM,63.0,62.1,97,30.08,1.0,Calm,Calm,-,N/A,,Overcast,0,2012-10-03 11:53:00
8:53 AM,64.0,62.1,93,30.08,1.5,East,4.6,-,N/A,,Overcast,90,2012-10-03 12:53:00
9:39 AM,64.4,62.6,94,30.07,0.8,Calm,Calm,-,0.08,Rain,Heavy Rain,0,2012-10-03 13:39:00
9:53 AM,64.0,63.0,96,30.09,2.0,East,3.5,-,0.13,Rain,Light Rain,80,2012-10-03 13:53:00
10:03 AM,64.4,62.6,94,30.08,0.8,Calm,Calm,-,0.11,Rain,Heavy Rain,0,2012-10-03 14:03:00
10:08 AM,64.4,62.6,94,30.07,0.2,East,4.6,-,0.27,Fog-Rain,Heavy Rain,90,2012-10-03 14:08:00
10:11 AM,64.4,62.6,94,30.07,0.5,East,4.6,-,0.29,Fog-Rain,Heavy Rain,100,2012-10-03 14:11:00
10:30 AM,64.4,62.6,94,30.07,1.2,Calm,Calm,-,0.44,Rain,Heavy Rain,0,2012-10-03 14:30:00
10:38 AM,64.4,62.6,94,30.08,3.0,Calm,Calm,-,0.44,Rain,Light Rain,0,2012-10-03 14:38:00
10:53 AM,66.0,64.0,93,30.09,7.0,ENE,3.5,-,0.44,,Overcast,60,2012-10-03 14:53:00
11:53 AM,66.9,64.0,90,30.09,7.0,Calm,Calm,-,N/A,,Overcast,0,2012-10-03 15:53:00
12:13 PM,66.2,64.4,94,30.07,2.0,Calm,Calm,-,0.00,,Overcast,0,2012-10-03 16:13:00
12:26 PM,68.0,64.4,88,30.07,4.0,Calm,Calm,-,0.00,,Overcast,0,2012-10-03 16:26:00
12:39 PM,68.0,64.4,88,30.07,4.0,Calm,Calm,-,0.00,,Overcast,0,2012-10-03 16:39:00
12:53 PM,68.0,64.9,90,30.08,3.0,Calm,Calm,-,0.00,,Overcast,0,2012-10-03 16:53:00
1:53 PM,69.1,66.0,90,30.07,4.0,Calm,Calm,-,N/A,,Overcast,0,2012-10-03 17:53:00
2:53 PM,70.0,66.9,90,30.07,4.0,Calm,Calm,-,N/A,,Overcast,0,2012-10-03 18:53:00
3:24 PM,69.8,66.2,88,30.06,2.5,WNW,3.5,-,N/A,,Overcast,290,2012-10-03 19:24:00
3:38 PM,69.8,66.2,88,30.06,1.5,Calm,Calm,-,N/A,,Overcast,0,2012-10-03 19:38:00
3:53 PM,70.0,66.9,90,30.08,1.0,Calm,Calm,-,N/A,,Overcast,0,2012-10-03 19:53:00
4:03 PM,69.8,68.0,94,30.07,0.8,Calm,Calm,-,N/A,,Overcast,0,2012-10-03 20:03:00
4:21 PM,69.8,68.0,94,30.07,0.8,Calm,Calm,-,N/A,,Overcast,0,2012-10-03 20:21:00
4:53 PM,70.0,68.0,93,30.08,0.2,Calm,Calm,-,N/A,Fog,Fog,0,2012-10-03 20:53:00
5:36 PM,69.8,68.0,94,30.07,0.5,Calm,Calm,-,N/A,Fog,Fog,0,2012-10-03 21:36:00
5:51 PM,69.8,68.0,94,30.07,1.0,Calm,Calm,-,N/A,,Overcast,0,2012-10-03 21:51:00
5:53 PM,70.0,68.0,93,30.09,1.0,Calm,Calm,-,N/A,,Overcast,0,2012-10-03 21:53:00
6:06 PM,69.8,68.0,94,30.07,1.0,Calm,Calm,-,N/A,,Overcast,0,2012-10-03 22:06:00
6:53 PM,70.0,68.0,93,30.09,1.5,Calm,Calm,-,N/A,,Overcast,0,2012-10-03 22:53:00
7:53 PM,70.0,68.0,93,30.10,1.5,Calm,Calm,-,N/A,,Overcast,0,2012-10-03 23:53:00
8:35 PM,69.8,68.0,94,30.10,0.8,Calm,Calm,-,N/A,,Overcast,0,2012-10-04 00:35:00
8:45 PM,69.8,68.0,94,30.10,1.5,Calm,Calm,-,N/A,,Overcast,0,2012-10-04 00:45:00
8:53 PM,70.0,68.0,93,30.12,1.5,Calm,Calm,-,N/A,,Overcast,0,2012-10-04 00:53:00
9:11 PM,69.8,68.0,94,30.10,2.0,Calm,Calm,-,N/A,,Overcast,0,2012-10-04 01:11:00
9:41 PM,69.8,68.0,94,30.11,1.0,Calm,Calm,-,N/A,,Mostly Cloudy,0,2012-10-04 01:41:00
9:48 PM,69.8,66.2,88,30.11,0.8,Calm,Calm,-,N/A,,Mostly Cloudy,0,2012-10-04 01:48:00
9:53 PM,69.1,66.9,93,30.13,0.5,Calm,Calm,-,N/A,Fog,Fog,0,2012-10-04 01:53:00
10:09 PM,69.8,66.2,88,30.11,1.0,Calm,Calm,-,N/A,,Mostly Cloudy,0,2012-10-04 02:09:00
10:16 PM,68.0,66.2,94,30.12,0.5,Calm,Calm,-,N/A,Fog,Fog,0,2012-10-04 02:16:00
10:53 PM,68.0,66.9,96,30.14,0.8,Calm,Calm,-,N/A,,Overcast,0,2012-10-04 02:53:00
11:00 PM,68.0,66.2,94,30.12,1.5,Calm,Calm,-,N/A,,Overcast,0,2012-10-04 03:00:00
11:11 PM,68.0,66.2,94,30.12,2.0,Calm,Calm,-,N/A,,Overcast,0,2012-10-04 03:11:00
11:20 PM,68.0,66.2,94,30.12,1.8,Calm,Calm,-,N/A,,Overcast,0,2012-10-04 03:20:00
11:29 PM,69.8,66.2,88,30.12,2.5,Calm,Calm,-,N/A,,Overcast,0,2012-10-04 03:29:00
11:31 PM,69.8,66.2,88,30.12,3.0,Calm,Calm,-,N/A,,Overcast,0,2012-10-04 03:31:00
11:53 PM,69.1,66.9,93,30.14,3.0,Calm,Calm,-,N/A,,Overcast,0,2012-10-04 03:53:00